Time;durP1;ratioP1;P1;durP2;ratioP2;P2;SDS_P1;SDS_P2;PMS_P1;PMS_P2;Temp;Humidity;BMP_temperature;BMP_pressure;BME280_temperature;BME280_humidity;BME280_pressure;Samples;Min_cycle;Max_cycle;Signal;HPM_P1;HPM_P2
2022/01/12 00:00:39;;;;;;;11.32;5.63;;;;;;;;;;6215580;23;20074;-77
2022/01/12 00:03:06;;;;;;;10.68;5.38;;;;;;;;;;6242420;23;20043;-76
2022/01/12 00:05:33;;;;;;;11.32;5.57;;;;;;;;;;6239488;23;20012;-75
2022/01/12 00:07:59;;;;;;;10.00;5.38;;;;;;;;;;6241210;23;20018;-76
2022/01/12 00:10:26;;;;;;;8.27;4.68;;;;;;;;;;6238681;23;20069;-76
2022/01/12 00:12:52;;;;;;;10.57;4.97;;;;;;;;;;6198411;23;20016;-73
2022/01/12 00:15:19;;;;;;;8.77;4.97;;;;;;;;;;6238875;23;20456;-76
2022/01/12 00:17:45;;;;;;;9.13;4.78;;;;;;;;;;6233417;23;21339;-74
2022/01/12 00:20:11;;;;;;;8.23;4.63;;;;;;;;;;6237351;23;20020;-75
2022/01/12 00:22:40;;;;;;;8.30;4.45;;;;;;;;;;6236364;23;20020;-75
2022/01/12 00:33:14;;;;;;;11.73;5.10;;;;;;;;;;6239219;23;20114;-76
2022/01/12 00:35:45;;;;;;;7.70;4.15;;;;;;;;;;6237135;23;20388;-76
2022/01/12 00:38:12;;;;;;;8.38;4.80;;;;;;;;;;6237990;23;20009;-76
2022/01/12 00:40:40;;;;;;;10.38;5.10;;;;;;;;;;6237477;23;20004;-74
2022/01/12 00:43:06;;;;;;;11.90;4.53;;;;;;;;;;6237701;23;20009;-76
2022/01/12 00:45:34;;;;;;;10.00;5.22;;;;;;;;;;6237481;23;20016;-76
2022/01/12 00:48:00;;;;;;;7.97;4.72;;;;;;;;;;6225508;23;20070;-77
2022/01/12 00:50:27;;;;;;;10.25;5.45;;;;;;;;;;6236825;23;20078;-75
2022/01/12 00:52:53;;;;;;;7.68;4.45;;;;;;;;;;6237494;23;20008;-76
2022/01/12 00:55:20;;;;;;;7.30;4.13;;;;;;;;;;6210455;23;20019;-78
2022/01/12 00:57:47;;;;;;;7.18;4.47;;;;;;;;;;6238818;23;20008;-76
2022/01/12 01:00:14;;;;;;;9.18;4.95;;;;;;;;;;6212039;23;20016;-75
2022/01/12 01:02:40;;;;;;;11.25;5.00;;;;;;;;;;6209467;23;20014;-77
2022/01/12 01:05:07;;;;;;;8.68;4.78;;;;;;;;;;6238179;23;20085;-74
2022/01/12 01:07:33;;;;;;;7.35;4.07;;;;;;;;;;6236455;23;20463;-77
2022/01/12 01:10:10;;;;;;;8.13;4.30;;;;;;;;;;6225597;23;20023;-76
2022/01/12 01:12:36;;;;;;;6.75;4.18;;;;;;;;;;6237284;23;20012;-76
2022/01/12 01:15:10;;;;;;;7.78;4.65;;;;;;;;;;6212439;23;20515;-77
2022/01/12 01:26:01;;;;;;;7.00;3.92;;;;;;;;;;6114444;23;21257;-74
2022/01/12 01:28:27;;;;;;;7.03;4.30;;;;;;;;;;6211459;23;20361;-76
2022/01/12 01:30:53;;;;;;;7.70;4.35;;;;;;;;;;6211004;23;20020;-75
2022/01/12 01:33:21;;;;;;;6.10;3.58;;;;;;;;;;6236767;23;20458;-76
2022/01/12 01:35:53;;;;;;;8.00;4.43;;;;;;;;;;6239063;23;20314;-77
2022/01/12 01:38:19;;;;;;;7.65;4.60;;;;;;;;;;6237461;23;20353;-80
2022/01/12 01:40:46;;;;;;;8.40;3.95;;;;;;;;;;6238965;23;20027;-77
2022/01/12 01:54:07;;;;;;;7.15;3.75;;;;;;;;;;6239096;23;20066;-75
2022/01/12 01:56:33;;;;;;;6.93;3.42;;;;;;;;;;6236191;22;20084;-75
2022/01/12 01:59:00;;;;;;;5.18;3.33;;;;;;;;;;6224297;23;20008;-75
2022/01/12 02:01:26;;;;;;;5.70;3.50;;;;;;;;;;6209236;23;20012;-75
2022/01/12 02:03:55;;;;;;;7.07;4.30;;;;;;;;;;6238563;23;20012;-74
2022/01/12 02:06:22;;;;;;;8.25;3.70;;;;;;;;;;6236648;23;20528;-76
2022/01/12 02:08:49;;;;;;;7.15;3.78;;;;;;;;;;6210818;23;20013;-77
2022/01/12 02:11:15;;;;;;;6.85;3.72;;;;;;;;;;6211160;23;20082;-76
2022/01/12 02:13:41;;;;;;;6.55;3.67;;;;;;;;;;6236103;23;20078;-76
2022/01/12 02:16:08;;;;;;;6.63;4.00;;;;;;;;;;6211134;23;20089;-76
2022/01/12 02:19:07;;;;;;;6.18;3.55;;;;;;;;;;6236607;23;20016;-75
2022/01/12 02:40:28;;;;;;;7.10;3.30;;;;;;;;;;6236467;23;19953;-75
2022/01/12 02:43:43;;;;;;;5.80;3.65;;;;;;;;;;6237248;23;20004;-74
2022/01/12 02:50:41;;;;;;;6.75;3.20;;;;;;;;;;6237332;23;20070;-75
2022/01/12 02:51:35;;;;;;;5.22;2.95;;;;;;;;;;6217245;23;20330;-74
2022/01/12 02:54:03;;;;;;;8.48;3.92;;;;;;;;;;6236315;23;20009;-77
2022/01/12 02:56:31;;;;;;;5.50;3.40;;;;;;;;;;6235491;22;20012;-76
2022/01/12 02:58:59;;;;;;;6.25;3.30;;;;;;;;;;6237021;23;20008;-76
2022/01/12 03:03:58;;;;;;;5.85;3.28;;;;;;;;;;6238244;23;20392;-76
2022/01/12 03:06:29;;;;;;;5.50;3.25;;;;;;;;;;6237545;23;20027;-76
2022/01/12 03:08:55;;;;;;;8.15;3.25;;;;;;;;;;6237421;23;20008;-77
2022/01/12 03:11:23;;;;;;;6.35;3.15;;;;;;;;;;6237142;23;20125;-77
2022/01/12 03:13:50;;;;;;;5.35;3.03;;;;;;;;;;6237851;23;20511;-77
2022/01/12 03:16:19;;;;;;;6.80;3.63;;;;;;;;;;6210801;23;20020;-76
2022/01/12 03:18:46;;;;;;;4.80;2.72;;;;;;;;;;6235955;23;20146;-76
2022/01/12 03:21:13;;;;;;;5.90;3.35;;;;;;;;;;6237345;23;20074;-76
2022/01/12 03:23:40;;;;;;;5.57;3.30;;;;;;;;;;6208581;23;20012;-76
2022/01/12 03:26:08;;;;;;;5.05;3.15;;;;;;;;;;6238411;23;20069;-76
2022/01/12 03:28:35;;;;;;;5.55;3.22;;;;;;;;;;6207906;23;20399;-76
2022/01/12 03:31:19;;;;;;;6.85;3.30;;;;;;;;;;6235989;23;20024;-74
2022/01/12 03:39:02;;;;;;;5.20;3.08;;;;;;;;;;6223549;23;20009;-76
2022/01/12 03:41:30;;;;;;;6.00;2.53;;;;;;;;;;6234075;23;20012;-78
2022/01/12 03:43:58;;;;;;;6.35;3.45;;;;;;;;;;6209446;23;20075;-76
2022/01/12 03:46:26;;;;;;;4.63;2.47;;;;;;;;;;6235008;23;20634;-76
2022/01/12 03:48:52;;;;;;;4.30;2.33;;;;;;;;;;6237022;23;20516;-76
2022/01/12 03:51:19;;;;;;;4.40;2.70;;;;;;;;;;6209827;23;20106;-76
2022/01/12 03:53:45;;;;;;;4.40;2.35;;;;;;;;;;6235264;23;20058;-75
2022/01/12 03:56:12;;;;;;;5.07;2.60;;;;;;;;;;6209999;23;20079;-77
2022/01/12 03:58:38;;;;;;;4.00;1.90;;;;;;;;;;6234719;22;20016;-77
2022/01/12 04:01:05;;;;;;;4.38;2.90;;;;;;;;;;6210054;23;20016;-78
2022/01/12 04:03:40;;;;;;;3.55;2.25;;;;;;;;;;6235605;23;20012;-76
2022/01/12 04:08:51;;;;;;;4.55;2.50;;;;;;;;;;6235672;23;22158;-76
2022/01/12 04:11:18;;;;;;;4.47;2.00;;;;;;;;;;6235426;23;20020;-78
2022/01/12 04:13:47;;;;;;;3.63;1.80;;;;;;;;;;6235723;23;20023;-77
2022/01/12 04:16:13;;;;;;;3.67;2.17;;;;;;;;;;6236336;23;20020;-77
2022/01/12 04:18:41;;;;;;;3.90;1.98;;;;;;;;;;6235630;23;20024;-77
2022/01/12 04:21:23;;;;;;;2.25;1.48;;;;;;;;;;6209217;23;20012;-79
2022/01/12 04:23:50;;;;;;;4.05;1.95;;;;;;;;;;6234621;23;21357;-77
2022/01/12 04:26:16;;;;;;;4.13;2.55;;;;;;;;;;6206295;23;20058;-78
2022/01/12 04:28:43;;;;;;;4.35;1.92;;;;;;;;;;6233182;23;20325;-76
2022/01/12 04:31:10;;;;;;;4.43;2.38;;;;;;;;;;6234898;23;20027;-75
2022/01/12 04:33:37;;;;;;;4.30;2.20;;;;;;;;;;6233827;23;20069;-77
2022/01/12 04:36:04;;;;;;;4.43;2.35;;;;;;;;;;6235746;23;20035;-77
2022/01/12 04:38:33;;;;;;;3.28;1.90;;;;;;;;;;6234830;23;20461;-77
2022/01/12 04:41:01;;;;;;;4.63;2.25;;;;;;;;;;6234440;23;20024;-77
2022/01/12 04:43:27;;;;;;;4.95;2.05;;;;;;;;;;6206930;23;20009;-75
2022/01/12 04:50:51;;;;;;;3.70;2.03;;;;;;;;;;6236590;23;20028;-75
2022/01/12 04:53:21;;;;;;;5.20;2.15;;;;;;;;;;6209787;23;20472;-78
2022/01/12 04:55:48;;;;;;;3.97;2.10;;;;;;;;;;6210000;23;20016;-77
2022/01/12 04:58:15;;;;;;;2.75;1.63;;;;;;;;;;6237674;23;20066;-76
2022/01/12 05:00:42;;;;;;;3.38;1.80;;;;;;;;;;6237167;23;20047;-77
2022/01/12 05:13:58;;;;;;;2.78;1.63;;;;;;;;;;6236542;23;22221;-75
2022/01/12 05:16:25;;;;;;;4.18;1.65;;;;;;;;;;6237017;23;20449;-77
2022/01/12 05:18:52;;;;;;;2.90;1.60;;;;;;;;;;6239466;23;20449;-76
2022/01/12 05:21:20;;;;;;;4.40;2.00;;;;;;;;;;6237861;23;20015;-75
2022/01/12 05:23:46;;;;;;;3.10;1.88;;;;;;;;;;6237025;23;21257;-77
2022/01/12 05:26:13;;;;;;;3.67;1.55;;;;;;;;;;6238355;23;20012;-75
2022/01/12 05:28:39;;;;;;;3.72;1.92;;;;;;;;;;6237246;23;20047;-74
2022/01/12 05:31:07;;;;;;;4.03;1.77;;;;;;;;;;6237558;23;20020;-76
2022/01/12 05:33:34;;;;;;;3.75;1.58;;;;;;;;;;6209626;23;20027;-77
2022/01/12 05:36:03;;;;;;;5.60;1.95;;;;;;;;;;6225144;23;20024;-76
2022/01/12 05:38:30;;;;;;;3.47;1.77;;;;;;;;;;6209455;23;20040;-76
2022/01/12 05:40:58;;;;;;;4.28;1.92;;;;;;;;;;6236739;23;20020;-76
2022/01/12 05:43:28;;;;;;;3.35;1.85;;;;;;;;;;6237354;23;20070;-75
2022/01/12 05:45:55;;;;;;;3.35;1.60;;;;;;;;;;6210586;23;20483;-78
2022/01/12 05:50:49;;;;;;;2.80;1.40;;;;;;;;;;6236779;23;20032;-77
2022/01/12 05:53:18;;;;;;;3.45;1.88;;;;;;;;;;6236861;23;20081;-75
2022/01/12 05:55:45;;;;;;;2.58;1.50;;;;;;;;;;6234645;22;20058;-74
2022/01/12 05:58:11;;;;;;;4.20;1.88;;;;;;;;;;6235872;23;20522;-76
2022/01/12 06:00:38;;;;;;;4.30;1.65;;;;;;;;;;6235559;23;20012;-75
2022/01/12 06:03:04;;;;;;;5.18;1.98;;;;;;;;;;6237689;23;20008;-75
2022/01/12 06:05:31;;;;;;;4.07;1.80;;;;;;;;;;6235178;23;20020;-76
2022/01/12 06:07:57;;;;;;;5.32;2.03;;;;;;;;;;6237109;23;20019;-76
2022/01/12 06:10:24;;;;;;;4.10;1.80;;;;;;;;;;6234885;23;20027;-76
2022/01/12 06:12:51;;;;;;;6.35;1.67;;;;;;;;;;6236553;23;20781;-77
2022/01/12 06:15:17;;;;;;;3.53;1.63;;;;;;;;;;6236255;23;20023;-77
2022/01/12 06:17:44;;;;;;;3.88;1.80;;;;;;;;;;6234787;23;20011;-76
2022/01/12 06:20:10;;;;;;;5.20;1.52;;;;;;;;;;6236469;23;20028;-76
2022/01/12 06:22:37;;;;;;;5.00;1.75;;;;;;;;;;6235017;23;20023;-77
2022/01/12 06:25:08;;;;;;;3.60;1.60;;;;;;;;;;6237041;23;20698;-76
2022/01/12 06:27:35;;;;;;;3.90;1.38;;;;;;;;;;6206620;23;20354;-75
2022/01/12 06:30:04;;;;;;;3.83;1.60;;;;;;;;;;6232732;23;20020;-76
2022/01/12 06:32:31;;;;;;;3.00;1.40;;;;;;;;;;6235637;23;20028;-75
2022/01/12 06:34:58;;;;;;;4.45;1.70;;;;;;;;;;6236885;23;20020;-76
2022/01/12 06:37:24;;;;;;;4.30;1.63;;;;;;;;;;6235052;23;20009;-76
2022/01/12 06:39:51;;;;;;;3.83;1.52;;;;;;;;;;6210501;23;20826;-76
2022/01/12 06:42:17;;;;;;;2.67;1.40;;;;;;;;;;6236158;23;20012;-76
2022/01/12 06:44:44;;;;;;;4.72;1.70;;;;;;;;;;6235871;23;20487;-76
2022/01/12 06:47:10;;;;;;;3.00;1.23;;;;;;;;;;6235732;23;20027;-76
2022/01/12 06:49:36;;;;;;;3.72;1.35;;;;;;;;;;6235961;23;20008;-77
2022/01/12 06:52:03;;;;;;;3.22;1.48;;;;;;;;;;6237166;22;20028;-76
2022/01/12 06:54:29;;;;;;;4.03;1.42;;;;;;;;;;6235145;22;20024;-76
2022/01/12 06:56:56;;;;;;;2.85;1.30;;;;;;;;;;6236668;23;20472;-77
2022/01/12 06:59:22;;;;;;;3.90;1.70;;;;;;;;;;6220975;22;20008;-80
2022/01/12 07:01:52;;;;;;;4.38;1.58;;;;;;;;;;6183654;22;20063;-77
2022/01/12 07:04:20;;;;;;;3.03;1.55;;;;;;;;;;6209722;23;20035;-76
2022/01/12 07:06:46;;;;;;;3.92;1.40;;;;;;;;;;6235031;23;22119;-77
2022/01/12 07:09:13;;;;;;;3.55;1.45;;;;;;;;;;6236473;23;20392;-76
2022/01/12 07:11:39;;;;;;;3.40;1.35;;;;;;;;;;6235070;23;20016;-77
2022/01/12 07:14:06;;;;;;;3.35;1.30;;;;;;;;;;6238955;23;20020;-75
2022/01/12 07:16:32;;;;;;;4.15;1.50;;;;;;;;;;6235673;23;20019;-75
2022/01/12 07:18:59;;;;;;;4.28;1.48;;;;;;;;;;6236563;23;20355;-76
2022/01/12 07:21:29;;;;;;;3.35;1.30;;;;;;;;;;6236662;23;20016;-75
2022/01/12 07:23:56;;;;;;;3.97;1.60;;;;;;;;;;6236621;23;20360;-75
2022/01/12 07:26:23;;;;;;;3.92;1.50;;;;;;;;;;6209026;23;20017;-75
2022/01/12 07:28:50;;;;;;;4.85;1.38;;;;;;;;;;6236882;23;20007;-76
2022/01/12 07:31:16;;;;;;;3.15;1.30;;;;;;;;;;6236959;23;20039;-75
2022/01/12 07:33:43;;;;;;;2.97;1.10;;;;;;;;;;6235362;23;20012;-75
2022/01/12 07:36:09;;;;;;;4.50;1.48;;;;;;;;;;6236933;23;20020;-75
2022/01/12 07:38:36;;;;;;;2.58;1.30;;;;;;;;;;6235241;23;20360;-75
2022/01/12 07:41:02;;;;;;;2.92;0.95;;;;;;;;;;6237090;23;20015;-75
2022/01/12 07:43:28;;;;;;;3.60;1.38;;;;;;;;;;6210647;23;20012;-76
2022/01/12 07:45:55;;;;;;;3.70;1.50;;;;;;;;;;6238872;23;20352;-75
2022/01/12 07:48:21;;;;;;;3.85;1.67;;;;;;;;;;6236635;23;20070;-78
2022/01/12 07:50:48;;;;;;;4.38;1.67;;;;;;;;;;6208599;23;20508;-74
2022/01/12 07:53:14;;;;;;;4.30;1.40;;;;;;;;;;6237598;23;20483;-74
2022/01/12 07:55:40;;;;;;;3.70;1.30;;;;;;;;;;6237021;22;20024;-74
2022/01/12 07:58:07;;;;;;;3.15;1.25;;;;;;;;;;6236515;23;20017;-76
2022/01/12 08:00:35;;;;;;;3.92;1.30;;;;;;;;;;6234484;23;20071;-74
2022/01/12 08:03:01;;;;;;;3.83;1.35;;;;;;;;;;6223353;23;20016;-75
2022/01/12 08:05:27;;;;;;;2.55;1.10;;;;;;;;;;6208813;23;20090;-75
2022/01/12 08:07:55;;;;;;;3.58;1.20;;;;;;;;;;6237311;23;20011;-75
2022/01/12 08:10:22;;;;;;;3.05;1.67;;;;;;;;;;6235528;23;20012;-79
2022/01/12 08:12:49;;;;;;;2.80;1.50;;;;;;;;;;6237597;23;20024;-75
2022/01/12 08:15:15;;;;;;;3.92;1.42;;;;;;;;;;6237644;23;20013;-76
2022/01/12 08:17:42;;;;;;;2.55;1.20;;;;;;;;;;6235046;23;20016;-77
2022/01/12 08:20:11;;;;;;;4.15;1.50;;;;;;;;;;6208822;23;20016;-76
2022/01/12 08:22:38;;;;;;;3.60;1.42;;;;;;;;;;6238918;23;20096;-76
2022/01/12 08:25:05;;;;;;;3.05;1.27;;;;;;;;;;6237768;23;20011;-75
2022/01/12 08:27:32;;;;;;;3.03;1.40;;;;;;;;;;6236939;23;20023;-75
2022/01/12 08:30:01;;;;;;;4.25;1.48;;;;;;;;;;6237761;23;20027;-75
2022/01/12 08:32:31;;;;;;;4.03;1.17;;;;;;;;;;6237510;23;20024;-75
2022/01/12 08:34:58;;;;;;;3.78;1.30;;;;;;;;;;6235453;23;20016;-75
2022/01/12 08:37:24;;;;;;;3.83;1.23;;;;;;;;;;6239014;23;20496;-75
2022/01/12 08:39:51;;;;;;;2.42;1.15;;;;;;;;;;6240444;23;20016;-75
2022/01/12 08:42:18;;;;;;;2.63;1.02;;;;;;;;;;6242224;23;20016;-75
2022/01/12 08:44:44;;;;;;;3.40;1.30;;;;;;;;;;6240788;23;20016;-76
2022/01/12 08:47:11;;;;;;;3.30;0.90;;;;;;;;;;6214543;23;20066;-75
2022/01/12 08:49:37;;;;;;;3.13;1.23;;;;;;;;;;6243974;23;20020;-76
2022/01/12 08:52:04;;;;;;;2.42;0.90;;;;;;;;;;6248436;23;20306;-75
2022/01/12 08:54:31;;;;;;;3.53;1.20;;;;;;;;;;6240446;22;20020;-74
2022/01/12 08:56:57;;;;;;;2.47;1.20;;;;;;;;;;6242480;23;20456;-76
2022/01/12 08:59:24;;;;;;;2.42;0.95;;;;;;;;;;6246219;23;20015;-76
2022/01/12 09:01:50;;;;;;;4.03;1.10;;;;;;;;;;6251807;23;20004;-75
2022/01/12 09:04:16;;;;;;;2.30;1.17;;;;;;;;;;6251377;23;20020;-75
2022/01/12 09:06:43;;;;;;;4.07;1.30;;;;;;;;;;6240058;23;20023;-75
2022/01/12 09:09:09;;;;;;;3.35;1.13;;;;;;;;;;6212793;23;20106;-75
2022/01/12 09:11:36;;;;;;;1.83;0.90;;;;;;;;;;6239296;23;20023;-76
2022/01/12 09:14:02;;;;;;;2.78;1.30;;;;;;;;;;6237055;23;20020;-74
2022/01/12 09:16:28;;;;;;;2.35;1.20;;;;;;;;;;6236782;23;20016;-75
2022/01/12 09:18:55;;;;;;;4.35;1.55;;;;;;;;;;6237578;23;20396;-75
2022/01/12 09:21:22;;;;;;;2.90;1.00;;;;;;;;;;6237803;23;20016;-76
2022/01/12 09:23:49;;;;;;;2.13;1.00;;;;;;;;;;6237772;23;20150;-75
2022/01/12 09:26:15;;;;;;;2.30;1.15;;;;;;;;;;6238118;23;20023;-75
2022/01/12 09:28:42;;;;;;;3.47;1.50;;;;;;;;;;6238404;23;20023;-76
2022/01/12 09:31:09;;;;;;;3.05;1.40;;;;;;;;;;6237485;23;20012;-75
2022/01/12 09:33:36;;;;;;;3.08;1.10;;;;;;;;;;6237979;23;20031;-75
2022/01/12 09:36:03;;;;;;;3.22;1.10;;;;;;;;;;6238552;23;20055;-75
2022/01/12 09:38:29;;;;;;;3.25;1.10;;;;;;;;;;6236465;23;20016;-75
2022/01/12 09:40:55;;;;;;;4.72;1.50;;;;;;;;;;6239103;23;20242;-75
2022/01/12 09:43:28;;;;;;;4.72;1.10;;;;;;;;;;6237653;23;20074;-79
2022/01/12 09:45:55;;;;;;;2.65;1.00;;;;;;;;;;6238846;23;20008;-75
2022/01/12 09:48:23;;;;;;;2.92;1.00;;;;;;;;;;6238564;23;20062;-74
2022/01/12 09:50:52;;;;;;;3.45;1.38;;;;;;;;;;6237556;22;21338;-75
2022/01/12 09:53:18;;;;;;;2.33;1.05;;;;;;;;;;6238254;23;20070;-74
2022/01/12 09:55:46;;;;;;;1.67;1.10;;;;;;;;;;6210653;23;20066;-75
2022/01/12 09:58:12;;;;;;;2.60;1.00;;;;;;;;;;6237894;23;20011;-76
2022/01/12 10:00:38;;;;;;;2.88;0.93;;;;;;;;;;6237479;23;20023;-75
2022/01/12 10:03:12;;;;;;;3.42;1.10;;;;;;;;;;6236776;23;20456;-74
2022/01/12 10:05:38;;;;;;;2.28;0.90;;;;;;;;;;6238350;23;20015;-75
2022/01/12 10:08:12;;;;;;;2.47;0.93;;;;;;;;;;6239961;23;20317;-75
2022/01/12 10:10:39;;;;;;;2.50;1.00;;;;;;;;;;6210245;23;20395;-76
2022/01/12 10:13:16;;;;;;;2.22;1.20;;;;;;;;;;6237509;23;20024;-76
2022/01/12 10:15:42;;;;;;;3.60;0.95;;;;;;;;;;6236971;23;20399;-75
2022/01/12 10:18:09;;;;;;;3.30;1.00;;;;;;;;;;6238398;23;20015;-75
2022/01/12 10:20:44;;;;;;;1.92;0.77;;;;;;;;;;6238105;23;20095;-75
2022/01/12 10:23:13;;;;;;;1.83;0.98;;;;;;;;;;6237061;23;20008;-76
2022/01/12 10:25:41;;;;;;;2.47;0.90;;;;;;;;;;6236339;23;20012;-74
2022/01/12 10:28:21;;;;;;;1.70;0.90;;;;;;;;;;6210140;23;20043;-76
2022/01/12 10:30:57;;;;;;;3.72;1.30;;;;;;;;;;6236054;23;20627;-75
2022/01/12 10:33:27;;;;;;;1.58;0.85;;;;;;;;;;6236167;23;20016;-76
2022/01/12 10:35:55;;;;;;;1.92;0.80;;;;;;;;;;6237380;23;20035;-75
2022/01/12 10:38:22;;;;;;;2.65;0.88;;;;;;;;;;6235945;23;20074;-80
2022/01/12 10:40:53;;;;;;;0.82;0.70;;;;;;;;;;6237200;23;20015;-75
2022/01/12 10:43:33;;;;;;;1.70;1.13;;;;;;;;;;6236402;23;20074;-75
2022/01/12 10:46:01;;;;;;;2.70;0.90;;;;;;;;;;6234671;23;21284;-75
2022/01/12 10:48:46;;;;;;;2.38;0.90;;;;;;;;;;6236139;23;20484;-77
2022/01/12 10:51:16;;;;;;;2.33;1.00;;;;;;;;;;6237148;23;20066;-74
2022/01/12 10:53:43;;;;;;;2.28;0.75;;;;;;;;;;6208957;22;20008;-75
2022/01/12 10:56:11;;;;;;;2.28;0.73;;;;;;;;;;6237310;23;20012;-75
2022/01/12 10:58:40;;;;;;;2.63;0.95;;;;;;;;;;6236384;23;20004;-75
2022/01/12 11:01:07;;;;;;;3.28;1.08;;;;;;;;;;6237789;23;20057;-74
2022/01/12 11:03:34;;;;;;;3.15;1.13;;;;;;;;;;6234636;23;20016;-75
2022/01/12 11:06:01;;;;;;;2.25;1.00;;;;;;;;;;6237584;23;20086;-74
2022/01/12 11:08:28;;;;;;;1.95;0.80;;;;;;;;;;6210485;23;20016;-76
2022/01/12 11:10:56;;;;;;;1.98;1.15;;;;;;;;;;6237634;23;20012;-76
2022/01/12 11:13:23;;;;;;;3.47;1.15;;;;;;;;;;6235878;23;20023;-74
2022/01/12 11:15:51;;;;;;;4.60;1.50;;;;;;;;;;6236190;23;20318;-75
2022/01/12 11:18:17;;;;;;;3.72;0.88;;;;;;;;;;6235100;23;20090;-75
2022/01/12 11:20:45;;;;;;;1.40;0.80;;;;;;;;;;6234944;23;20024;-75
2022/01/12 11:23:12;;;;;;;2.17;1.17;;;;;;;;;;6235360;23;20020;-74
2022/01/12 11:25:40;;;;;;;2.47;1.05;;;;;;;;;;6235796;23;20016;-76
2022/01/12 11:28:12;;;;;;;2.45;0.73;;;;;;;;;;6236054;23;20521;-76
2022/01/12 11:30:40;;;;;;;1.90;0.70;;;;;;;;;;6235891;23;20012;-77
2022/01/12 11:33:09;;;;;;;3.25;0.80;;;;;;;;;;6236885;23;20024;-76
2022/01/12 11:35:37;;;;;;;4.15;1.20;;;;;;;;;;6235568;23;20016;-76
2022/01/12 11:38:04;;;;;;;2.75;1.02;;;;;;;;;;6237307;23;20012;-78
2022/01/12 11:40:35;;;;;;;2.10;1.10;;;;;;;;;;6235957;23;20463;-75
2022/01/12 11:43:01;;;;;;;3.00;1.13;;;;;;;;;;6236394;23;20567;-77
2022/01/12 11:45:28;;;;;;;2.67;1.23;;;;;;;;;;6235655;23;20020;-77
2022/01/12 11:47:54;;;;;;;3.78;1.23;;;;;;;;;;6236566;23;20016;-77
2022/01/12 11:50:20;;;;;;;4.35;1.38;;;;;;;;;;6235796;23;20345;-77
2022/01/12 11:52:47;;;;;;;2.88;0.93;;;;;;;;;;6235205;23;20020;-77
2022/01/12 11:55:14;;;;;;;2.92;1.08;;;;;;;;;;6237995;22;20020;-78
2022/01/12 11:57:46;;;;;;;1.77;0.93;;;;;;;;;;6237593;23;20012;-75
2022/01/12 12:00:14;;;;;;;1.83;1.10;;;;;;;;;;6210038;23;20062;-77
2022/01/12 12:02:45;;;;;;;4.25;1.00;;;;;;;;;;6236616;22;20046;-77
2022/01/12 12:05:16;;;;;;;2.63;0.90;;;;;;;;;;6211603;23;20395;-79
2022/01/12 12:08:12;;;;;;;15.43;1.52;;;;;;;;;;6237754;23;20334;-78
2022/01/12 12:10:39;;;;;;;2.50;0.80;;;;;;;;;;6206131;23;20020;-76
2022/01/12 12:13:06;;;;;;;2.47;0.93;;;;;;;;;;6238081;23;20024;-77
2022/01/12 12:15:33;;;;;;;2.15;1.13;;;;;;;;;;6236336;23;20012;-77
2022/01/12 12:18:04;;;;;;;3.00;1.10;;;;;;;;;;6238855;23;20811;-77
2022/01/12 12:20:31;;;;;;;1.03;0.67;;;;;;;;;;6235396;23;20445;-77
2022/01/12 12:22:57;;;;;;;2.42;1.23;;;;;;;;;;6185595;23;20414;-76
2022/01/12 12:25:36;;;;;;;3.22;0.75;;;;;;;;;;6210693;23;20074;-77
2022/01/12 12:28:04;;;;;;;2.67;1.05;;;;;;;;;;6225988;23;20025;-77
2022/01/12 12:30:32;;;;;;;1.67;0.80;;;;;;;;;;6237409;23;20012;-75
2022/01/12 12:33:03;;;;;;;1.88;0.73;;;;;;;;;;6183216;23;20024;-78
2022/01/12 12:35:32;;;;;;;1.60;0.68;;;;;;;;;;6196457;23;20020;-78
2022/01/12 12:38:00;;;;;;;2.40;0.90;;;;;;;;;;6236824;23;20038;-76
2022/01/12 12:40:38;;;;;;;1.30;0.60;;;;;;;;;;6221597;23;20020;-78
2022/01/12 12:43:12;;;;;;;1.52;0.80;;;;;;;;;;6208977;23;21364;-77
2022/01/12 12:45:59;;;;;;;2.83;0.93;;;;;;;;;;6211248;23;20012;-76
2022/01/12 12:48:30;;;;;;;2.72;0.82;;;;;;;;;;6209111;23;20016;-77
2022/01/12 12:51:04;;;;;;;2.75;1.10;;;;;;;;;;6235320;23;20024;-77
2022/01/12 12:53:35;;;;;;;1.63;0.57;;;;;;;;;;6238226;22;20399;-76
2022/01/12 12:56:02;;;;;;;2.85;0.90;;;;;;;;;;6237588;23;20016;-76
2022/01/12 12:58:28;;;;;;;1.25;0.65;;;;;;;;;;6211376;23;20066;-76
2022/01/12 13:01:07;;;;;;;2.45;1.05;;;;;;;;;;6238875;23;20017;-76
2022/01/12 13:03:35;;;;;;;2.58;1.02;;;;;;;;;;6237683;23;20013;-78
2022/01/12 13:06:02;;;;;;;2.20;0.90;;;;;;;;;;6224974;23;20017;-77
2022/01/12 13:08:28;;;;;;;1.58;0.75;;;;;;;;;;6235979;23;20058;-75
2022/01/12 13:10:55;;;;;;;2.85;0.70;;;;;;;;;;6238965;23;20499;-78
2022/01/12 13:13:21;;;;;;;1.83;0.70;;;;;;;;;;6211254;23;20012;-77
2022/01/12 13:15:48;;;;;;;3.17;0.82;;;;;;;;;;6224863;23;20011;-77
2022/01/12 13:18:18;;;;;;;3.42;0.82;;;;;;;;;;6238698;23;20004;-76
2022/01/12 13:23:43;;;;;;;3.60;0.90;;;;;;;;;;6239343;23;20085;-79
2022/01/12 13:26:12;;;;;;;2.63;0.82;;;;;;;;;;6212736;23;20083;-75
2022/01/12 13:28:39;;;;;;;2.70;1.10;;;;;;;;;;6238832;23;20008;-77
2022/01/12 13:31:07;;;;;;;2.17;0.60;;;;;;;;;;6238379;23;20016;-78
2022/01/12 13:33:35;;;;;;;3.13;0.80;;;;;;;;;;6236956;23;20468;-76
2022/01/12 13:36:12;;;;;;;2.10;0.95;;;;;;;;;;6225293;23;20016;-77
2022/01/12 13:38:39;;;;;;;7.32;2.28;;;;;;;;;;6237950;23;20015;-77
2022/01/12 13:41:07;;;;;;;6.63;3.67;;;;;;;;;;6238561;23;20005;-76
2022/01/12 13:43:33;;;;;;;11.85;6.22;;;;;;;;;;6237757;23;20080;-77
2022/01/12 13:46:17;;;;;;;9.27;4.78;;;;;;;;;;6238845;23;20087;-78
2022/01/12 13:49:10;;;;;;;14.90;8.52;;;;;;;;;;6237581;23;20390;-76
2022/01/12 13:51:37;;;;;;;18.55;8.98;;;;;;;;;;6238360;23;20035;-77
2022/01/12 13:54:05;;;;;;;23.83;12.15;;;;;;;;;;6214361;23;20043;-77
2022/01/12 13:56:36;;;;;;;18.63;11.25;;;;;;;;;;6238109;23;20510;-77
2022/01/12 13:59:02;;;;;;;28.00;15.38;;;;;;;;;;6212376;23;20020;-78
2022/01/12 14:01:32;;;;;;;10.82;6.90;;;;;;;;;;6237276;23;20346;-78
2022/01/12 14:04:09;;;;;;;25.00;13.35;;;;;;;;;;6237366;23;20019;-79
2022/01/12 14:06:41;;;;;;;22.52;12.68;;;;;;;;;;6237373;23;20020;-78
2022/01/12 14:09:20;;;;;;;33.03;19.00;;;;;;;;;;6237452;23;20020;-77
2022/01/12 14:11:48;;;;;;;24.27;13.45;;;;;;;;;;6210358;23;20012;-76
2022/01/12 14:14:15;;;;;;;26.73;14.20;;;;;;;;;;6235767;23;20023;-78
2022/01/12 14:16:41;;;;;;;25.23;14.50;;;;;;;;;;6234754;23;20017;-77
2022/01/12 14:19:08;;;;;;;35.53;18.27;;;;;;;;;;6235822;23;20074;-78
2022/01/12 14:21:35;;;;;;;29.15;13.70;;;;;;;;;;6234999;23;20012;-76
2022/01/12 14:24:05;;;;;;;38.28;21.08;;;;;;;;;;6234248;23;20488;-78
2022/01/12 14:26:41;;;;;;;23.75;13.95;;;;;;;;;;6235032;23;20523;-77
2022/01/12 14:29:11;;;;;;;34.60;19.02;;;;;;;;;;6235085;23;20005;-78
2022/01/12 14:31:38;;;;;;;37.55;20.63;;;;;;;;;;6235236;23;20019;-76
2022/01/12 14:34:05;;;;;;;36.60;21.13;;;;;;;;;;6237506;23;20051;-76
2022/01/12 14:36:33;;;;;;;24.23;14.43;;;;;;;;;;6236044;23;20514;-78
2022/01/12 14:39:00;;;;;;;21.00;13.23;;;;;;;;;;6235876;23;20090;-76
2022/01/12 14:41:26;;;;;;;37.63;18.35;;;;;;;;;;6208238;23;20023;-77
2022/01/12 14:43:53;;;;;;;52.67;28.95;;;;;;;;;;6237121;23;20070;-77
2022/01/12 14:46:20;;;;;;;26.77;15.30;;;;;;;;;;6237195;23;20020;-77
2022/01/12 14:48:47;;;;;;;39.65;22.38;;;;;;;;;;6235921;23;20016;-77
2022/01/12 14:51:13;;;;;;;42.50;22.65;;;;;;;;;;6206182;23;20078;-79
2022/01/12 14:53:42;;;;;;;34.83;19.20;;;;;;;;;;6237192;22;20021;-77
2022/01/12 14:56:08;;;;;;;42.88;24.73;;;;;;;;;;6237948;23;20448;-76
2022/01/12 14:58:36;;;;;;;30.88;16.85;;;;;;;;;;6235805;23;20012;-76
2022/01/12 15:01:02;;;;;;;53.25;27.10;;;;;;;;;;6210940;23;20017;-75
2022/01/12 15:03:29;;;;;;;46.50;25.98;;;;;;;;;;6236273;23;20012;-77
2022/01/12 15:06:01;;;;;;;32.72;19.40;;;;;;;;;;6237283;23;20015;-76
2022/01/12 15:08:27;;;;;;;45.45;25.65;;;;;;;;;;6236145;23;20016;-77
2022/01/12 15:10:54;;;;;;;34.92;21.17;;;;;;;;;;6211508;23;20008;-77
2022/01/12 15:13:24;;;;;;;51.40;30.23;;;;;;;;;;6210823;23;20074;-79
2022/01/12 15:15:52;;;;;;;50.83;26.27;;;;;;;;;;6208428;23;20493;-77
2022/01/12 15:18:19;;;;;;;36.78;21.42;;;;;;;;;;6235979;23;20008;-76
2022/01/12 15:20:46;;;;;;;53.10;28.77;;;;;;;;;;6234153;23;20008;-77
2022/01/12 15:23:12;;;;;;;33.55;20.25;;;;;;;;;;6238099;23;20012;-77
2022/01/12 15:25:39;;;;;;;43.72;23.65;;;;;;;;;;6236208;23;20071;-76
2022/01/12 15:28:09;;;;;;;55.90;31.25;;;;;;;;;;6237709;23;20004;-77
2022/01/12 15:30:40;;;;;;;57.72;30.63;;;;;;;;;;6234161;23;20023;-75
2022/01/12 15:33:08;;;;;;;45.15;24.65;;;;;;;;;;6209727;23;20020;-76
2022/01/12 15:35:36;;;;;;;59.28;33.10;;;;;;;;;;6233958;23;20016;-78
2022/01/12 15:38:04;;;;;;;51.08;30.10;;;;;;;;;;6208184;23;20518;-77
2022/01/12 15:40:31;;;;;;;33.28;18.30;;;;;;;;;;6234098;23;20008;-76
2022/01/12 15:42:58;;;;;;;39.55;22.25;;;;;;;;;;6235459;23;20020;-77
2022/01/12 15:45:25;;;;;;;53.67;30.70;;;;;;;;;;6234290;23;20019;-76
2022/01/12 15:47:51;;;;;;;27.13;15.23;;;;;;;;;;6236432;23;20008;-77
2022/01/12 15:50:18;;;;;;;71.78;39.95;;;;;;;;;;6235373;23;20016;-76
2022/01/12 15:52:44;;;;;;;33.08;20.42;;;;;;;;;;6233438;22;20031;-77
2022/01/12 15:55:11;;;;;;;57.88;32.15;;;;;;;;;;6234307;23;20013;-77
2022/01/12 15:57:37;;;;;;;55.05;28.55;;;;;;;;;;6234066;23;20027;-77
2022/01/12 16:00:07;;;;;;;33.42;19.30;;;;;;;;;;6235647;23;20024;-76
2022/01/12 16:02:34;;;;;;;36.08;21.77;;;;;;;;;;6234895;23;20012;-77
2022/01/12 16:05:00;;;;;;;59.22;33.40;;;;;;;;;;6237175;23;20066;-78